Time;durP1;ratioP1;P1;durP2;ratioP2;P2;SDS_P1;SDS_P2;PMS_P1;PMS_P2;Temp;Humidity;BMP_temperature;BMP_pressure;BME280_temperature;BME280_humidity;BME280_pressure;Samples;Min_cycle;Max_cycle;Signal;HPM_P1;HPM_P2
2022/01/05 00:01:26;;;;;;;14.03;8.37;;;6.50;99.90;;;;;;4190175;28;20074;-52
2022/01/05 00:03:27;;;;;;;17.67;9.47;;;6.60;99.90;;;;;;4191766;28;20029;-54
2022/01/05 00:05:28;;;;;;;16.83;9.73;;;6.60;99.90;;;;;;4189543;28;20459;-55
2022/01/05 00:07:30;;;;;;;17.87;9.77;;;6.60;99.90;;;;;;4190748;28;20094;-52
2022/01/05 00:09:31;;;;;;;18.83;10.70;;;6.60;99.90;;;;;;4189796;28;20040;-55
2022/01/05 00:11:32;;;;;;;17.13;9.73;;;6.60;99.90;;;;;;4190241;28;20044;-55
2022/01/05 00:13:33;;;;;;;22.83;11.00;;;6.60;99.90;;;;;;4190700;28;20114;-55
2022/01/05 00:15:34;;;;;;;13.03;6.90;;;6.50;99.90;;;;;;4189677;28;20049;-49
2022/01/05 00:17:35;;;;;;;9.57;6.30;;;6.40;99.90;;;;;;4190697;28;20105;-54
2022/01/05 00:19:37;;;;;;;10.10;5.70;;;6.30;99.90;;;;;;4189851;28;20083;-54
2022/01/05 00:21:40;;;;;;;10.43;6.57;;;6.30;99.90;;;;;;4191268;28;20121;-54
2022/01/05 00:23:42;;;;;;;10.93;6.77;;;6.20;99.90;;;;;;4189788;28;20044;-53
2022/01/05 00:25:44;;;;;;;11.63;6.67;;;6.20;99.90;;;;;;4190855;28;20778;-54
2022/01/05 00:27:45;;;;;;;12.30;6.97;;;6.20;99.90;;;;;;4189313;28;20036;-53
2022/01/05 00:29:47;;;;;;;11.37;7.87;;;6.20;99.90;;;;;;4190872;28;20530;-55
2022/01/05 00:31:48;;;;;;;13.47;7.10;;;6.20;99.90;;;;;;4188913;28;20101;-53
2022/01/05 00:33:50;;;;;;;14.77;7.10;;;6.20;99.90;;;;;;4190902;28;20488;-57
2022/01/05 00:35:51;;;;;;;14.43;8.87;;;6.20;99.90;;;;;;4189977;28;20029;-55
2022/01/05 00:37:52;;;;;;;20.23;9.13;;;6.10;99.90;;;;;;4191246;28;20484;-57
2022/01/05 00:39:53;;;;;;;20.17;9.00;;;6.10;99.90;;;;;;4189915;28;20087;-58
2022/01/05 00:41:55;;;;;;;15.97;9.17;;;6.00;99.90;;;;;;4190454;28;20484;-56
2022/01/05 00:43:56;;;;;;;21.17;9.77;;;6.00;99.90;;;;;;4189744;28;20499;-52
2022/01/05 00:45:57;;;;;;;23.00;9.80;;;6.00;99.90;;;;;;4189804;28;20086;-56
2022/01/05 00:47:58;;;;;;;17.77;10.33;;;6.00;99.90;;;;;;4190629;28;20032;-57
2022/01/05 00:49:59;;;;;;;18.37;9.33;;;6.00;99.90;;;;;;4189231;28;20060;-57
2022/01/05 00:52:01;;;;;;;16.63;8.97;;;6.00;99.90;;;;;;4191001;28;20443;-56
2022/01/05 00:54:02;;;;;;;19.53;8.60;;;6.00;99.90;;;;;;4189089;28;20070;-52
2022/01/05 00:56:04;;;;;;;12.57;8.03;;;6.00;99.90;;;;;;4190317;28;20036;-56
2022/01/05 00:58:05;;;;;;;15.93;8.90;;;6.00;99.90;;;;;;4189887;28;20455;-56
2022/01/05 01:00:07;;;;;;;15.27;8.60;;;6.00;99.90;;;;;;4190477;28;20066;-49
2022/01/05 01:02:08;;;;;;;14.00;8.13;;;6.00;99.90;;;;;;4187370;28;20680;-54
2022/01/05 01:04:09;;;;;;;14.37;8.90;;;6.00;99.90;;;;;;4190775;28;20082;-55
2022/01/05 01:06:11;;;;;;;18.37;8.70;;;6.00;99.90;;;;;;4190015;28;20028;-50
2022/01/05 01:08:12;;;;;;;14.07;8.53;;;6.00;99.90;;;;;;4191135;28;20083;-54
2022/01/05 01:10:13;;;;;;;14.03;8.17;;;6.10;99.90;;;;;;4189690;28;20032;-52
2022/01/05 01:12:15;;;;;;;15.23;7.87;;;6.10;99.90;;;;;;4190291;28;20036;-55
2022/01/05 01:14:16;;;;;;;14.87;7.67;;;6.10;99.90;;;;;;4189869;28;20534;-56
2022/01/05 01:16:19;;;;;;;13.73;7.43;;;6.10;99.90;;;;;;4189793;28;20423;-50
2022/01/05 01:18:20;;;;;;;11.60;7.50;;;6.20;99.90;;;;;;4190177;28;20476;-52
2022/01/05 01:20:21;;;;;;;13.80;7.50;;;6.20;99.90;;;;;;4192731;28;20028;-56
2022/01/05 01:22:22;;;;;;;13.87;8.73;;;6.10;99.90;;;;;;4194290;28;20052;-55
2022/01/05 01:24:24;;;;;;;18.47;8.80;;;6.10;99.90;;;;;;4192795;28;20106;-52
2022/01/05 01:26:28;;;;;;;11.30;6.57;;;6.10;99.90;;;;;;4193812;28;20090;-55
2022/01/05 01:28:29;;;;;;;10.53;5.77;;;6.10;99.90;;;;;;4191474;28;20078;-54
2022/01/05 01:30:32;;;;;;;14.53;7.93;;;6.10;99.90;;;;;;4193369;28;20024;-47
2022/01/05 01:32:33;;;;;;;13.67;7.07;;;6.10;99.90;;;;;;4192226;28;20029;-55
2022/01/05 01:34:34;;;;;;;13.23;7.30;;;6.10;99.90;;;;;;4193508;28;20040;-54
2022/01/05 01:36:35;;;;;;;12.80;7.90;;;6.10;99.90;;;;;;4192908;28;20028;-51
2022/01/05 01:38:37;;;;;;;13.60;8.40;;;6.00;99.90;;;;;;4193844;28;20074;-56
2022/01/05 01:40:38;;;;;;;13.20;7.67;;;6.00;99.90;;;;;;4192055;28;20098;-57
2022/01/05 01:42:40;;;;;;;15.00;7.53;;;6.00;99.90;;;;;;4193316;28;20489;-56
2022/01/05 01:44:41;;;;;;;12.97;7.77;;;6.00;99.90;;;;;;4192688;28;20462;-54
2022/01/05 01:46:42;;;;;;;14.07;7.83;;;6.00;99.90;;;;;;4192724;28;20432;-55
2022/01/05 01:48:44;;;;;;;13.20;7.20;;;6.00;99.90;;;;;;4193288;28;20435;-57
2022/01/05 01:50:46;;;;;;;13.93;7.57;;;6.00;99.90;;;;;;4192489;28;20086;-52
2022/01/05 01:52:47;;;;;;;10.83;7.00;;;6.00;99.90;;;;;;4193032;28;20054;-53
2022/01/05 01:54:48;;;;;;;9.67;6.50;;;6.00;99.90;;;;;;4191884;28;20036;-53
2022/01/05 01:56:50;;;;;;;9.63;5.80;;;6.00;99.90;;;;;;4193332;28;20089;-50
2022/01/05 01:58:52;;;;;;;11.60;6.20;;;6.10;99.90;;;;;;4191872;28;20078;-53
2022/01/05 02:00:54;;;;;;;11.70;7.07;;;6.10;99.90;;;;;;4193429;28;20021;-53
2022/01/05 02:02:56;;;;;;;13.50;7.57;;;6.20;99.90;;;;;;4191405;28;20447;-52
2022/01/05 02:04:57;;;;;;;5.93;4.10;;;6.10;99.90;;;;;;4191748;28;20575;-57
2022/01/05 02:06:58;;;;;;;10.23;6.20;;;6.20;99.90;;;;;;4192329;28;20032;-56
2022/01/05 02:09:00;;;;;;;7.83;5.17;;;6.30;99.90;;;;;;4193429;28;20044;-54
2022/01/05 02:11:03;;;;;;;10.33;6.83;;;6.40;99.90;;;;;;4191598;28;20094;-56
2022/01/05 02:13:04;;;;;;;12.13;7.07;;;6.40;99.90;;;;;;4192726;28;20510;-56
2022/01/05 02:15:06;;;;;;;12.77;7.77;;;6.20;99.90;;;;;;4191579;28;20060;-55
2022/01/05 02:17:18;;;;;;;12.10;6.57;;;6.10;99.90;;;;;;4192802;28;20037;-53
2022/01/05 02:19:20;;;;;;;12.37;6.80;;;6.00;99.90;;;;;;4191852;28;20069;-51
2022/01/05 02:21:22;;;;;;;12.07;7.30;;;5.90;99.90;;;;;;4191947;28;20404;-54
2022/01/05 02:23:23;;;;;;;11.00;7.10;;;5.80;99.90;;;;;;4192494;28;20028;-54
2022/01/05 02:25:25;;;;;;;10.50;6.77;;;5.70;99.90;;;;;;4191726;28;20044;-47
2022/01/05 02:27:26;;;;;;;10.87;6.67;;;5.70;99.90;;;;;;4192968;28;20024;-53
2022/01/05 02:29:27;;;;;;;13.00;7.47;;;5.70;99.90;;;;;;4191224;28;20037;-57
2022/01/05 02:31:28;;;;;;;11.47;7.77;;;5.50;99.90;;;;;;4193154;28;20032;-52
2022/01/05 02:33:31;;;;;;;14.20;7.70;;;5.40;99.90;;;;;;4191513;28;20020;-51
2022/01/05 02:35:32;;;;;;;12.87;8.57;;;5.40;99.90;;;;;;4193388;28;20498;-54
2022/01/05 02:37:40;;;;;;;16.43;9.67;;;5.30;99.90;;;;;;4191549;28;20037;-54
2022/01/05 02:39:41;;;;;;;11.80;7.40;;;5.30;99.90;;;;;;4193035;28;20751;-56
2022/01/05 02:41:42;;;;;;;15.30;8.83;;;5.10;99.90;;;;;;4191228;28;20090;-52
2022/01/05 02:43:45;;;;;;;15.17;8.37;;;5.10;99.90;;;;;;4192421;28;20404;-53
2022/01/05 02:45:46;;;;;;;22.43;11.77;;;5.00;99.90;;;;;;4191437;28;20079;-54
2022/01/05 02:47:49;;;;;;;12.83;8.33;;;5.00;99.90;;;;;;4192494;28;20307;-53
2022/01/05 02:49:50;;;;;;;16.90;9.00;;;4.90;99.90;;;;;;4191286;28;20269;-57
2022/01/05 02:51:51;;;;;;;15.03;8.77;;;5.00;99.90;;;;;;4192761;28;20323;-56
2022/01/05 02:53:52;;;;;;;21.23;12.13;;;5.10;99.90;;;;;;4191828;28;20036;-52
2022/01/05 02:55:53;;;;;;;23.23;13.43;;;5.20;99.90;;;;;;4191846;28;20789;-56
2022/01/05 02:57:54;;;;;;;13.80;8.63;;;5.20;99.90;;;;;;4191764;28;20032;-55
2022/01/05 02:59:56;;;;;;;16.97;9.40;;;5.30;99.90;;;;;;4191044;28;20262;-55
2022/01/05 03:01:57;;;;;;;22.23;10.77;;;5.50;99.90;;;;;;4191977;28;20277;-56
2022/01/05 03:03:58;;;;;;;10.77;6.10;;;5.50;99.90;;;;;;4191003;28;20036;-54
2022/01/05 03:06:00;;;;;;;11.17;6.43;;;5.60;99.90;;;;;;4192281;28;20324;-51
2022/01/05 03:08:01;;;;;;;8.87;5.80;;;5.70;99.90;;;;;;4190879;28;20265;-54
2022/01/05 03:10:03;;;;;;;11.93;7.47;;;5.80;99.90;;;;;;4192094;28;20347;-54
2022/01/05 03:12:04;;;;;;;9.27;4.93;;;5.80;99.90;;;;;;4190706;28;21089;-53
2022/01/05 03:14:05;;;;;;;10.37;5.97;;;5.90;99.90;;;;;;4192490;28;20040;-53
2022/01/05 03:16:07;;;;;;;7.60;4.67;;;6.00;99.90;;;;;;4190634;28;20028;-55
2022/01/05 03:18:08;;;;;;;14.33;7.40;;;6.00;99.90;;;;;;4191704;28;20044;-54
2022/01/05 03:20:13;;;;;;;12.40;6.47;;;6.10;99.90;;;;;;4190835;28;20070;-55
2022/01/05 03:22:14;;;;;;;19.90;9.73;;;6.10;99.90;;;;;;4190781;28;20052;-57
2022/01/05 03:24:15;;;;;;;18.97;9.70;;;6.00;99.90;;;;;;4190573;28;20501;-57
2022/01/05 03:26:16;;;;;;;13.20;7.37;;;6.00;99.90;;;;;;4191084;28;20488;-55
2022/01/05 03:28:19;;;;;;;20.27;10.50;;;6.00;99.90;;;;;;4191094;28;20020;-53
2022/01/05 03:30:25;;;;;;;20.27;11.40;;;6.00;99.90;;;;;;4191097;28;20041;-58
2022/01/05 03:32:33;;;;;;;21.40;12.23;;;6.00;99.90;;;;;;4191118;28;20090;-54
2022/01/05 03:34:36;;;;;;;19.87;11.10;;;6.00;99.90;;;;;;4190824;28;20044;-56
2022/01/05 03:36:38;;;;;;;24.27;13.13;;;5.90;99.90;;;;;;4191669;28;20025;-59
2022/01/05 03:38:39;;;;;;;26.43;13.37;;;5.90;99.90;;;;;;4190543;28;20032;-52
2022/01/05 03:40:40;;;;;;;23.47;13.53;;;5.90;99.90;;;;;;4191523;28;20107;-53
2022/01/05 03:42:41;;;;;;;23.70;13.13;;;6.00;99.90;;;;;;4189833;28;20110;-52
2022/01/05 03:44:42;;;;;;;23.00;13.00;;;5.90;99.90;;;;;;4191517;28;20040;-58
2022/01/05 03:46:43;;;;;;;20.87;12.80;;;5.90;99.90;;;;;;4190330;28;20552;-53
2022/01/05 03:48:44;;;;;;;21.87;12.27;;;6.00;99.90;;;;;;4191634;28;20029;-55
2022/01/05 03:50:46;;;;;;;19.40;12.80;;;6.00;99.90;;;;;;4189766;28;20430;-54
2022/01/05 03:52:47;;;;;;;21.50;13.63;;;6.10;99.90;;;;;;4191571;28;20473;-57
2022/01/05 03:54:48;;;;;;;20.00;11.20;;;6.10;99.90;;;;;;4189938;28;20036;-55
2022/01/05 03:56:49;;;;;;;21.77;12.17;;;6.10;99.90;;;;;;4190890;28;20090;-55
2022/01/05 03:58:52;;;;;;;24.07;12.70;;;6.20;99.90;;;;;;4190556;28;20070;-57
2022/01/05 04:00:53;;;;;;;21.37;13.20;;;6.20;99.90;;;;;;4190816;28;20078;-52
2022/01/05 04:02:54;;;;;;;21.80;12.20;;;6.30;99.90;;;;;;4190317;28;20036;-54
2022/01/05 04:04:55;;;;;;;24.07;13.53;;;6.30;99.90;;;;;;4190265;28;20146;-54
2022/01/05 04:06:56;;;;;;;24.13;13.07;;;6.30;99.90;;;;;;4191330;28;20032;-53
2022/01/05 04:08:58;;;;;;;23.63;13.47;;;6.40;99.90;;;;;;4189625;28;20488;-53
2022/01/05 04:10:59;;;;;;;29.30;14.43;;;6.40;99.90;;;;;;4191068;28;20045;-54
2022/01/05 04:13:01;;;;;;;32.67;13.90;;;6.40;99.90;;;;;;4189691;28;20032;-54
2022/01/05 04:15:03;;;;;;;24.40;13.00;;;6.40;99.90;;;;;;4190739;28;20526;-54
2022/01/05 04:17:04;;;;;;;26.87;13.83;;;6.50;99.90;;;;;;4189594;28;20040;-54
2022/01/05 04:19:05;;;;;;;27.07;14.43;;;6.50;99.90;;;;;;4190766;28;20036;-57
2022/01/05 04:21:06;;;;;;;21.87;12.63;;;6.60;99.90;;;;;;4188216;28;20024;-55
2022/01/05 04:23:08;;;;;;;27.83;13.77;;;6.50;99.90;;;;;;4190977;28;20447;-54
2022/01/05 04:25:10;;;;;;;24.00;13.87;;;6.50;99.90;;;;;;4189327;28;20048;-53
2022/01/05 04:27:11;;;;;;;28.00;15.27;;;6.60;99.90;;;;;;4190998;28;20044;-55
2022/01/05 04:29:12;;;;;;;23.17;13.47;;;6.60;99.90;;;;;;4189324;28;20032;-56
2022/01/05 04:31:13;;;;;;;27.90;14.20;;;6.60;99.90;;;;;;4190580;28;20555;-55
2022/01/05 04:33:14;;;;;;;22.40;13.77;;;6.60;99.90;;;;;;4190044;28;20430;-55
2022/01/05 04:35:15;;;;;;;23.67;14.40;;;6.60;99.90;;;;;;4189824;28;20451;-58
2022/01/05 04:37:17;;;;;;;27.63;14.30;;;6.60;99.90;;;;;;4190736;28;20037;-55
2022/01/05 04:39:18;;;;;;;22.90;14.27;;;6.60;99.90;;;;;;4189534;28;20696;-56
2022/01/05 04:41:19;;;;;;;27.67;15.43;;;6.60;99.90;;;;;;4190718;28;20041;-56
2022/01/05 04:43:20;;;;;;;28.27;15.03;;;6.70;99.90;;;;;;4188542;28;20036;-49
2022/01/05 04:45:21;;;;;;;36.10;18.07;;;6.60;99.90;;;;;;4190208;28;20101;-56
2022/01/05 04:47:23;;;;;;;29.30;16.03;;;6.60;99.90;;;;;;4189225;28;20495;-54
2022/01/05 04:49:24;;;;;;;29.47;15.97;;;6.50;99.90;;;;;;4190518;28;20040;-54
2022/01/05 04:51:25;;;;;;;25.63;13.63;;;6.40;99.90;;;;;;4188987;28;20036;-55
2022/01/05 04:53:26;;;;;;;25.10;14.80;;;6.20;99.90;;;;;;4190331;28;20094;-57
2022/01/05 04:55:27;;;;;;;31.80;16.60;;;6.10;99.90;;;;;;4189288;28;20098;-57
2022/01/05 04:57:28;;;;;;;32.53;17.43;;;6.00;99.90;;;;;;4190119;28;20044;-55
2022/01/05 04:59:29;;;;;;;30.60;18.43;;;6.00;99.90;;;;;;4189031;28;20036;-54
2022/01/05 05:01:31;;;;;;;36.57;17.67;;;5.90;99.90;;;;;;4189740;28;20438;-57
2022/01/05 05:03:32;;;;;;;35.60;17.87;;;6.00;99.90;;;;;;4189341;28;20076;-57
2022/01/05 05:05:34;;;;;;;29.57;15.97;;;6.00;99.90;;;;;;4189935;28;20040;-56
2022/01/05 05:07:35;;;;;;;18.97;11.03;;;6.00;99.90;;;;;;4190059;28;20012;-55
2022/01/05 05:09:36;;;;;;;20.57;11.53;;;6.00;99.90;;;;;;4189168;28;20029;-56
2022/01/05 05:11:38;;;;;;;24.20;14.13;;;5.90;99.90;;;;;;4190687;28;21124;-56
2022/01/05 05:13:39;;;;;;;20.27;12.07;;;6.00;99.90;;;;;;4188676;28;20382;-56
2022/01/05 05:15:41;;;;;;;23.30;12.77;;;6.00;99.90;;;;;;4189872;28;20090;-58
2022/01/05 05:17:42;;;;;;;21.73;11.93;;;6.00;99.90;;;;;;4187269;28;20036;-56
2022/01/05 05:19:43;;;;;;;21.93;11.20;;;6.00;99.90;;;;;;4190114;28;20439;-55
2022/01/05 05:21:44;;;;;;;30.23;13.80;;;6.10;99.90;;;;;;4188772;28;20040;-56
2022/01/05 05:23:45;;;;;;;36.17;15.60;;;6.10;99.90;;;;;;4190229;28;20455;-56
2022/01/05 05:25:47;;;;;;;27.10;15.27;;;6.10;99.90;;;;;;4188813;28;20045;-55
2022/01/05 05:27:48;;;;;;;24.13;14.93;;;6.10;99.90;;;;;;4189629;28;20074;-59
2022/01/05 05:29:49;;;;;;;30.27;14.73;;;6.20;99.90;;;;;;4188444;28;20041;-58
2022/01/05 05:31:50;;;;;;;28.43;16.63;;;6.20;99.90;;;;;;4190074;28;20038;-59
2022/01/05 05:33:51;;;;;;;27.07;15.37;;;6.20;99.90;;;;;;4188479;28;20082;-52
2022/01/05 05:35:52;;;;;;;30.33;16.73;;;6.20;99.90;;;;;;4188692;28;20554;-55
2022/01/05 05:37:54;;;;;;;23.20;14.77;;;6.30;99.90;;;;;;4189715;28;20566;-57
2022/01/05 05:39:55;;;;;;;22.97;14.67;;;6.30;99.90;;;;;;4189299;28;20033;-56
2022/01/05 05:41:56;;;;;;;37.90;16.93;;;6.30;99.90;;;;;;4189666;28;20032;-56
2022/01/05 05:43:57;;;;;;;32.13;17.87;;;6.40;99.90;;;;;;4188428;28;20488;-56
2022/01/05 05:45:58;;;;;;;46.57;19.93;;;6.30;99.90;;;;;;4189690;28;20085;-56
2022/01/05 05:48:00;;;;;;;35.40;17.20;;;6.20;99.90;;;;;;4188605;28;20485;-55
2022/01/05 05:50:01;;;;;;;36.87;18.00;;;6.10;99.90;;;;;;4190180;28;20098;-55
2022/01/05 05:52:02;;;;;;;32.50;14.93;;;6.10;99.90;;;;;;4188541;28;20573;-57
2022/01/05 05:54:04;;;;;;;28.37;14.77;;;6.00;99.90;;;;;;4189864;28;20040;-51
2022/01/05 05:56:05;;;;;;;24.87;13.47;;;6.00;99.90;;;;;;4188105;28;20475;-56
2022/01/05 05:58:06;;;;;;;26.97;13.97;;;6.00;99.90;;;;;;4190257;28;20089;-53
2022/01/05 06:00:08;;;;;;;28.57;13.63;;;6.00;99.90;;;;;;4188156;28;20082;-56
2022/01/05 06:02:09;;;;;;;19.30;10.87;;;6.00;99.90;;;;;;4189169;28;20036;-53
2022/01/05 06:04:10;;;;;;;22.80;12.07;;;6.00;99.90;;;;;;4188755;28;20097;-52
2022/01/05 06:06:11;;;;;;;25.43;11.90;;;6.10;99.90;;;;;;4191791;28;20133;-53
2022/01/05 06:08:12;;;;;;;38.47;14.47;;;6.10;99.90;;;;;;4193042;28;20025;-53
2022/01/05 06:10:14;;;;;;;23.93;12.23;;;6.10;99.90;;;;;;4192013;28;20554;-55
2022/01/05 06:12:15;;;;;;;23.70;12.67;;;6.20;99.90;;;;;;4193021;28;20025;-58
2022/01/05 06:14:16;;;;;;;18.33;10.83;;;6.20;99.90;;;;;;4191400;28;20041;-56
2022/01/05 06:16:17;;;;;;;26.83;13.43;;;6.20;99.90;;;;;;4191226;28;20088;-54
2022/01/05 06:18:18;;;;;;;22.90;11.97;;;6.20;99.90;;;;;;4191537;28;20074;-52
2022/01/05 06:20:21;;;;;;;27.60;12.47;;;6.30;99.90;;;;;;4192326;28;20684;-57
2022/01/05 06:22:22;;;;;;;23.00;12.97;;;6.30;99.90;;;;;;4191546;28;20431;-55
2022/01/05 06:24:23;;;;;;;31.50;12.30;;;6.30;99.90;;;;;;4192622;28;20025;-56
2022/01/05 06:26:24;;;;;;;28.03;12.70;;;6.40;99.90;;;;;;4190836;28;20178;-50
2022/01/05 06:28:25;;;;;;;34.33;14.40;;;6.40;99.90;;;;;;4191248;28;20094;-53
2022/01/05 06:30:26;;;;;;;28.20;14.17;;;6.50;99.90;;;;;;4191308;28;20074;-54
2022/01/05 06:32:28;;;;;;;31.57;15.03;;;6.50;99.90;;;;;;4191745;28;20040;-56
2022/01/05 06:34:29;;;;;;;26.87;14.07;;;6.60;99.90;;;;;;4190888;28;20036;-51
2022/01/05 06:36:30;;;;;;;41.63;18.53;;;6.60;99.90;;;;;;4190999;28;20752;-56
2022/01/05 06:38:31;;;;;;;30.33;17.50;;;6.60;99.90;;;;;;4192151;28;20484;-55
2022/01/05 06:40:34;;;;;;;32.83;16.93;;;6.60;99.90;;;;;;4191140;28;20126;-53
2022/01/05 06:42:35;;;;;;;39.27;19.87;;;6.70;99.90;;;;;;4191870;28;20484;-53
2022/01/05 06:44:36;;;;;;;30.97;16.07;;;6.70;99.90;;;;;;4190731;28;20121;-56
2022/01/05 06:46:37;;;;;;;27.60;14.83;;;6.80;99.90;;;;;;4192389;28;20105;-54
2022/01/05 06:48:38;;;;;;;40.10;19.70;;;6.90;99.90;;;;;;4191360;28;20040;-55
2022/01/05 06:50:39;;;;;;;30.77;16.77;;;7.00;99.90;;;;;;4192248;28;20036;-56
2022/01/05 06:52:40;;;;;;;37.83;18.10;;;7.00;99.90;;;;;;4190886;28;20106;-57
2022/01/05 06:54:42;;;;;;;39.50;18.50;;;7.10;99.90;;;;;;4191639;28;20044;-56
2022/01/05 06:56:44;;;;;;;29.67;16.20;;;7.30;99.90;;;;;;4190351;28;20118;-55
2022/01/05 06:58:45;;;;;;;32.70;18.03;;;7.30;99.90;;;;;;4188353;28;20040;-57
2022/01/05 07:00:47;;;;;;;36.83;17.87;;;7.40;99.90;;;;;;4188100;28;20052;-53
2022/01/05 07:02:48;;;;;;;36.73;19.07;;;7.50;99.90;;;;;;4191315;28;20097;-55
2022/01/05 07:04:49;;;;;;;39.50;20.13;;;7.60;99.90;;;;;;4190570;28;20111;-55
2022/01/05 07:06:50;;;;;;;45.83;18.93;;;7.70;99.90;;;;;;4191712;28;20472;-55
2022/01/05 07:08:51;;;;;;;38.47;19.87;;;7.70;99.90;;;;;;4191305;28;20033;-57
2022/01/05 07:10:52;;;;;;;33.73;20.23;;;7.60;99.90;;;;;;4190760;28;20032;-55
2022/01/05 07:12:53;;;;;;;33.90;19.73;;;7.60;99.90;;;;;;4188673;28;20048;-55
2022/01/05 07:14:55;;;;;;;37.10;20.20;;;7.70;99.90;;;;;;4190403;28;20036;-55
2022/01/05 07:16:56;;;;;;;40.33;22.53;;;7.70;99.90;;;;;;4189619;28;20052;-56
2022/01/05 07:18:57;;;;;;;37.40;19.37;;;7.70;99.90;;;;;;4190376;28;20473;-57
2022/01/05 07:20:58;;;;;;;50.33;24.63;;;7.60;99.90;;;;;;4191657;28;20036;-52
2022/01/05 07:22:59;;;;;;;53.97;26.40;;;7.50;99.90;;;;;;4190070;28;20090;-56
2022/01/05 07:25:00;;;;;;;67.53;28.90;;;7.50;99.90;;;;;;4191425;28;20067;-53
2022/01/05 07:27:02;;;;;;;75.33;34.10;;;7.40;99.90;;;;;;4190234;28;20037;-52
2022/01/05 07:29:03;;;;;;;73.17;37.90;;;7.30;99.90;;;;;;4191422;28;20805;-55
2022/01/05 07:31:04;;;;;;;67.33;34.97;;;7.20;99.90;;;;;;4189233;28;20037;-53
2022/01/05 07:33:05;;;;;;;61.40;32.00;;;7.10;99.90;;;;;;4191055;28;20503;-58
2022/01/05 07:35:07;;;;;;;59.37;33.30;;;7.00;99.90;;;;;;4190404;28;20040;-52
2022/01/05 07:37:09;;;;;;;61.93;30.63;;;7.00;99.90;;;;;;4191212;28;20093;-54
2022/01/05 07:39:10;;;;;;;54.77;31.90;;;7.00;99.90;;;;;;4190910;28;20478;-56
2022/01/05 07:41:12;;;;;;;67.07;29.60;;;7.00;99.90;;;;;;4190491;28;20033;-58
2022/01/05 07:43:13;;;;;;;63.37;31.47;;;7.00;99.90;;;;;;4190612;28;20048;-55
2022/01/05 07:45:14;;;;;;;67.30;31.73;;;7.10;99.90;;;;;;4189403;28;20044;-57
2022/01/05 07:47:15;;;;;;;55.80;29.50;;;7.10;99.90;;;;;;4191177;28;20032;-55
2022/01/05 07:49:16;;;;;;;59.40;29.73;;;7.10;99.90;;;;;;4190010;28;20040;-51
2022/01/05 07:51:18;;;;;;;53.27;28.20;;;7.20;99.90;;;;;;4191270;28;20044;-55
2022/01/05 07:53:19;;;;;;;49.43;25.67;;;7.20;99.90;;;;;;4189916;28;20500;-55
2022/01/05 07:55:20;;;;;;;41.10;21.93;;;7.20;99.90;;;;;;4186007;28;20028;-54
2022/01/05 07:57:22;;;;;;;46.90;25.03;;;7.20;99.90;;;;;;4173670;28;20033;-58
2022/01/05 07:59:23;;;;;;;49.67;23.17;;;7.10;99.90;;;;;;4174664;28;20025;-53
2022/01/05 08:01:24;;;;;;;33.93;20.03;;;7.10;99.90;;;;;;4173384;28;20078;-55
2022/01/05 08:03:25;;;;;;;23.13;13.47;;;7.10;99.90;;;;;;4174683;28;20083;-56
2022/01/05 08:05:27;;;;;;;30.10;14.63;;;7.10;99.90;;;;;;4173814;28;20087;-52
2022/01/05 08:07:28;;;;;;;32.83;17.07;;;7.10;99.90;;;;;;4175102;28;20045;-55
2022/01/05 08:09:29;;;;;;;32.87;18.67;;;7.20;99.90;;;;;;4173776;28;20049;-57
2022/01/05 08:11:31;;;;;;;36.33;20.07;;;7.30;99.90;;;;;;4173744;28;20124;-61
2022/01/05 08:13:32;;;;;;;39.47;20.13;;;7.30;99.90;;;;;;4174219;28;20106;-57
2022/01/05 08:15:33;;;;;;;35.53;19.57;;;7.40;99.90;;;;;;4172377;28;20049;-55
2022/01/05 08:17:34;;;;;;;31.53;17.50;;;7.60;99.90;;;;;;4174753;28;20094;-55
2022/01/05 08:19:35;;;;;;;31.83;16.63;;;7.90;99.90;;;;;;4173682;28;20106;-59
2022/01/05 08:21:36;;;;;;;34.67;16.30;;;8.10;99.90;;;;;;4180400;28;20048;-55
2022/01/05 08:23:37;;;;;;;40.10;18.30;;;8.20;99.90;;;;;;4190043;28;20371;-56
2022/01/05 08:25:39;;;;;;;40.60;18.73;;;8.20;99.90;;;;;;4190616;28;20114;-56
2022/01/05 08:27:46;;;;;;;42.43;19.70;;;8.30;99.90;;;;;;4189213;28;20531;-52
2022/01/05 08:29:47;;;;;;;40.33;20.83;;;8.30;99.90;;;;;;4190841;28;20070;-53
2022/01/05 08:31:48;;;;;;;38.57;19.90;;;8.50;99.90;;;;;;4189350;28;20419;-53
2022/01/05 08:33:51;;;;;;;36.03;17.60;;;8.60;99.90;;;;;;4190459;28;20098;-57
2022/01/05 08:35:52;;;;;;;41.13;18.87;;;8.60;99.90;;;;;;4187809;28;20174;-57
2022/01/05 08:37:53;;;;;;;40.03;19.10;;;8.60;99.90;;;;;;4190383;28;20184;-57
2022/01/05 08:39:54;;;;;;;42.13;20.43;;;8.70;99.90;;;;;;4189240;28;20028;-57
2022/01/05 08:41:55;;;;;;;41.90;19.33;;;8.80;99.90;;;;;;4189621;28;20083;-56
2022/01/05 08:43:56;;;;;;;47.07;20.83;;;8.90;99.90;;;;;;4190003;28;20078;-60
2022/01/05 08:45:58;;;;;;;43.30;21.27;;;9.00;99.90;;;;;;4189671;28;20024;-56
2022/01/05 08:47:59;;;;;;;41.97;21.90;;;9.10;99.90;;;;;;4190457;28;20050;-56
2022/01/05 08:50:00;;;;;;;37.47;21.53;;;9.20;99.90;;;;;;4189396;28;20036;-58
2022/01/05 08:52:02;;;;;;;42.37;24.00;;;9.30;99.90;;;;;;4191095;28;20518;-58
2022/01/05 08:54:04;;;;;;;53.33;24.97;;;9.30;99.90;;;;;;4188979;28;20032;-58
2022/01/05 08:56:05;;;;;;;40.50;22.27;;;9.30;99.90;;;;;;4190558;28;20041;-59
2022/01/05 08:58:07;;;;;;;29.97;18.77;;;9.30;99.90;;;;;;4189540;28;20040;-49
2022/01/05 09:00:11;;;;;;;34.33;20.80;;;9.30;99.90;;;;;;4190610;28;20040;-53
2022/01/05 09:02:15;;;;;;;31.63;17.93;;;9.30;99.90;;;;;;4189405;28;20098;-56
2022/01/05 09:04:17;;;;;;;33.43;18.87;;;9.30;99.90;;;;;;4189217;28;20033;-56
2022/01/05 09:06:19;;;;;;;27.13;16.60;;;9.50;99.90;;;;;;4189545;28;20122;-52
2022/01/05 09:08:20;;;;;;;36.63;20.00;;;9.60;99.90;;;;;;4190835;28;20025;-57
2022/01/05 09:10:22;;;;;;;32.10;17.77;;;9.80;99.90;;;;;;4188724;28;20373;-54
2022/01/05 09:12:23;;;;;;;37.97;16.27;;;9.90;99.90;;;;;;4189667;28;20025;-56
2022/01/05 09:14:24;;;;;;;31.03;16.77;;;10.00;99.90;;;;;;4189613;28;20498;-55
2022/01/05 09:16:25;;;;;;;30.20;15.00;;;10.10;99.90;;;;;;4189258;28;20110;-54
2022/01/05 09:18:26;;;;;;;34.57;16.03;;;10.10;99.90;;;;;;4189918;28;20477;-52
2022/01/05 09:20:28;;;;;;;27.27;12.40;;;10.10;99.90;;;;;;4189235;28;20032;-55
2022/01/05 09:22:29;;;;;;;19.67;11.83;;;10.10;99.90;;;;;;4188834;28;20098;-53
2022/01/05 09:24:32;;;;;;;29.13;13.60;;;10.20;99.90;;;;;;4188687;28;20020;-53
2022/01/05 09:26:33;;;;;;;32.03;14.13;;;10.30;99.90;;;;;;4189389;28;20048;-57
2022/01/05 09:28:40;;;;;;;31.87;13.70;;;10.50;99.90;;;;;;4188568;28;20114;-53
2022/01/05 09:30:45;;;;;;;27.83;13.20;;;10.50;99.90;;;;;;4189375;28;20480;-57
2022/01/05 09:32:47;;;;;;;28.07;13.93;;;10.70;99.90;;;;;;4187687;28;20561;-53
2022/01/05 09:34:49;;;;;;;34.13;13.73;;;10.80;99.90;;;;;;4190539;28;20523;-58
2022/01/05 09:36:58;;;;;;;32.63;13.37;;;10.80;99.90;;;;;;4189062;28;20463;-55
2022/01/05 09:43:55;;;;;;;26.07;13.73;;;11.10;99.90;;;;;;4192902;28;20098;-53
2022/01/05 09:46:16;;;;;;;41.90;15.07;;;11.10;99.90;;;;;;4190826;28;20032;-55
2022/01/05 09:48:43;;;;;;;29.17;13.65;;;11.20;99.90;;;;;;4192745;28;20032;-56
2022/01/05 09:50:57;;;;;;;32.47;16.07;;;11.10;99.90;;;;;;4191326;28;20090;-54
2022/01/05 09:52:59;;;;;;;33.20;18.07;;;11.20;99.90;;;;;;4192817;28;20032;-55
2022/01/05 09:55:01;;;;;;;38.63;19.13;;;11.10;99.90;;;;;;4191421;28;20021;-57
2022/01/05 09:57:05;;;;;;;43.60;21.17;;;11.10;99.90;;;;;;4193081;28;20109;-56
2022/01/05 09:59:06;;;;;;;44.20;21.37;;;11.10;99.90;;;;;;4191216;28;20086;-54
2022/01/05 10:01:08;;;;;;;43.60;20.73;;;11.10;99.90;;;;;;4193035;28;20048;-57
2022/01/05 10:03:10;;;;;;;37.07;19.80;;;11.10;99.90;;;;;;4191304;28;20091;-54
2022/01/05 10:05:13;;;;;;;48.60;23.33;;;11.10;99.90;;;;;;4192987;28;20078;-55
2022/01/05 10:07:15;;;;;;;50.67;24.53;;;11.10;99.90;;;;;;4191289;28;20063;-54
2022/01/05 10:09:16;;;;;;;56.77;27.27;;;11.20;99.90;;;;;;4192772;28;20566;-53
2022/01/05 10:11:20;;;;;;;50.80;23.20;;;11.20;99.90;;;;;;4190841;28;20111;-55
2022/01/05 10:13:22;;;;;;;42.73;18.70;;;11.30;99.90;;;;;;4192438;28;20036;-56
2022/01/05 10:15:26;;;;;;;38.37;19.80;;;11.30;99.90;;;;;;4190798;28;20029;-53
2022/01/05 10:17:32;;;;;;;39.17;19.93;;;11.30;99.90;;;;;;4192053;28;20056;-57
2022/01/05 10:19:35;;;;;;;32.20;16.77;;;11.40;99.90;;;;;;4191756;28;20048;-52
2022/01/05 10:21:41;;;;;;;40.10;17.27;;;11.40;99.90;;;;;;4191649;28;20032;-56
2022/01/05 10:23:45;;;;;;;37.87;19.63;;;11.50;99.90;;;;;;4191535;28;20036;-55
2022/01/05 10:25:46;;;;;;;40.97;19.93;;;11.60;99.90;;;;;;4190636;28;20044;-56
2022/01/05 10:28:01;;;;;;;47.47;23.23;;;11.60;99.90;;;;;;4191899;28;20028;-55
2022/01/05 10:30:12;;;;;;;57.77;27.50;;;11.70;99.90;;;;;;4191298;28;20537;-57
2022/01/05 10:32:13;;;;;;;51.42;24.10;;;11.70;99.90;;;;;;4191194;28;20036;-55